Wildomar, California
Current Conditions -  °F | °C
As of 1:55 AM on Thursday 23 Oct 2014 (Local Time) from KF70 Reporting Station
Clear Clear  
Wind Chill: 57°   Ceiling: Unl
Heat Index: 57°   Visibility: 10mi
Dew Point: 41°   Wind: 0mph
Humidity: 55%   Direction: NA
Pressure: 30"   Gusts: NA
Location:  33.61°N, 117.26°W
Report Text: KF70 230855Z AUTO 00000KT 10SM CLR 14/05 A3000 RMK AO1
Loading
Personal Weather Stations






























Interactive Weather Map
Tropical Storm Tracking
New forecast layout! Learn more

10-Day Weather Forecast

Advertisements
Track Severe Weather on mobile